Pescadero, California
Current Conditions -  °F | °C
As of 10:35 PM on Friday 28 Nov 2014 (Local Time) from KHAF Reporting Station
Haze Haze  
Wind Chill: 57°   Ceiling: 1200
Heat Index: 57°   Visibility: 5mi
Dew Point: 55°   Wind: 7mph
Humidity: 94%   Direction: 130°SE
Pressure: 29.88"   Gusts: NA
Location:  37.25°N, 122.38°W
Report Text: KHAF 290635Z AUTO 13006KT 5SM BR OVC012 14/13 A2988 RMK AO2
Loading
Personal Weather Stations






























Interactive Weather Map New forecast layout! Learn more

10-Day Weather Forecast

Advertisements
Track Severe Weather on mobile